sensor_id;sensor_type;location;lat;lon;timestamp;pressure;altitude;pressure_sealevel;temperature;humidity
57050;BME280;42935;50.966;16.992;2023-06-19T00:01:38;101371.95;;;13.40;100.00
57050;BME280;42935;50.966;16.992;2023-06-19T00:05:25;101378.04;;;13.36;100.00
57050;BME280;42935;50.966;16.992;2023-06-19T00:08:41;101375.70;;;13.41;100.00
57050;BME280;42935;50.966;16.992;2023-06-19T00:11:58;101370.86;;;13.36;100.00
57050;BME280;42935;50.966;16.992;2023-06-19T00:15:43;101364.31;;;13.22;100.00
57050;BME280;42935;50.966;16.992;2023-06-19T00:18:55;101371.85;;;13.31;100.00
57050;BME280;42935;50.966;16.992;2023-06-19T00:22:12;101364.47;;;13.22;100.00
57050;BME280;42935;50.966;16.992;2023-06-19T00:25:35;101375.02;;;13.18;100.00
57050;BME280;42935;50.966;16.992;2023-06-19T00:28:52;101373.34;;;13.12;100.00
57050;BME280;42935;50.966;16.992;2023-06-19T00:32:15;101369.83;;;13.05;100.00
57050;BME280;42935;50.966;16.992;2023-06-19T00:35:28;101371.66;;;13.06;100.00
57050;BME280;42935;50.966;16.992;2023-06-19T00:38:43;101371.50;;;12.98;100.00
57050;BME280;42935;50.966;16.992;2023-06-19T00:42:00;101362.34;;;12.98;100.00
57050;BME280;42935;50.966;16.992;2023-06-19T00:45:17;101362.55;;;12.95;100.00
57050;BME280;42935;50.966;16.992;2023-06-19T00:48:35;101369.72;;;12.93;100.00
57050;BME280;42935;50.966;16.992;2023-06-19T00:51:53;101365.14;;;12.86;100.00
57050;BME280;42935;50.966;16.992;2023-06-19T00:55:10;101366.33;;;12.80;100.00
57050;BME280;42935;50.966;16.992;2023-06-19T00:58:25;101363.66;;;12.72;100.00
57050;BME280;42935;50.966;16.992;2023-06-19T01:01:40;101352.54;;;12.65;100.00
57050;BME280;42935;50.966;16.992;2023-06-19T01:04:57;101361.61;;;12.57;100.00
57050;BME280;42935;50.966;16.992;2023-06-19T01:11:49;101357.42;;;12.39;100.00
57050;BME280;42935;50.966;16.992;2023-06-19T01:15:08;101368.70;;;12.41;100.00
57050;BME280;42935;50.966;16.992;2023-06-19T01:18:23;101370.82;;;12.44;100.00
57050;BME280;42935;50.966;16.992;2023-06-19T01:21:46;101366.23;;;12.47;100.00
57050;BME280;42935;50.966;16.992;2023-06-19T01:25:04;101366.02;;;12.39;100.00
57050;BME280;42935;50.966;16.992;2023-06-19T01:28:21;101365.98;;;12.41;100.00
57050;BME280;42935;50.966;16.992;2023-06-19T01:31:46;101358.46;;;12.26;100.00
57050;BME280;42935;50.966;16.992;2023-06-19T01:35:08;101366.73;;;12.27;100.00
57050;BME280;42935;50.966;16.992;2023-06-19T01:38:26;101371.50;;;12.02;100.00
57050;BME280;42935;50.966;16.992;2023-06-19T01:41:53;101362.44;;;11.79;100.00
57050;BME280;42935;50.966;16.992;2023-06-19T01:45:11;101370.52;;;12.00;100.00
57050;BME280;42935;50.966;16.992;2023-06-19T01:48:35;101368.38;;;12.09;100.00
57050;BME280;42935;50.966;16.992;2023-06-19T01:51:56;101368.13;;;12.13;100.00
57050;BME280;42935;50.966;16.992;2023-06-19T01:55:16;101363.92;;;12.01;100.00
57050;BME280;42935;50.966;16.992;2023-06-19T01:58:34;101364.72;;;11.68;100.00
57050;BME280;42935;50.966;16.992;2023-06-19T02:01:52;101365.07;;;11.85;100.00
57050;BME280;42935;50.966;16.992;2023-06-19T02:05:11;101363.98;;;11.77;100.00
57050;BME280;42935;50.966;16.992;2023-06-19T02:08:29;101371.07;;;11.82;100.00
57050;BME280;42935;50.966;16.992;2023-06-19T02:11:46;101367.25;;;11.87;100.00
57050;BME280;42935;50.966;16.992;2023-06-19T02:15:04;101363.24;;;11.75;100.00
57050;BME280;42935;50.966;16.992;2023-06-19T02:18:25;101364.88;;;11.76;100.00
57050;BME280;42935;50.966;16.992;2023-06-19T02:21:42;101364.57;;;11.75;100.00
57050;BME280;42935;50.966;16.992;2023-06-19T02:24:59;101349.63;;;11.69;100.00
57050;BME280;42935;50.966;16.992;2023-06-19T02:28:43;101365.82;;;11.83;100.00
57050;BME280;42935;50.966;16.992;2023-06-19T02:32:05;101320.87;;;11.46;100.00
57050;BME280;42935;50.966;16.992;2023-06-19T02:35:21;101358.36;;;11.71;100.00
57050;BME280;42935;50.966;16.992;2023-06-19T02:38:42;101367.03;;;11.84;100.00
57050;BME280;42935;50.966;16.992;2023-06-19T02:42:00;101365.05;;;11.78;100.00
57050;BME280;42935;50.966;16.992;2023-06-19T02:45:18;101360.73;;;11.76;100.00
57050;BME280;42935;50.966;16.992;2023-06-19T02:48:35;101364.19;;;11.28;100.00
57050;BME280;42935;50.966;16.992;2023-06-19T02:51:52;101369.87;;;11.24;100.00
57050;BME280;42935;50.966;16.992;2023-06-19T02:55:10;101378.83;;;11.37;100.00
57050;BME280;42935;50.966;16.992;2023-06-19T02:58:27;101378.38;;;11.49;100.00
57050;BME280;42935;50.966;16.992;2023-06-19T03:01:43;101375.80;;;11.56;100.00
57050;BME280;42935;50.966;16.992;2023-06-19T03:05:02;101372.84;;;11.41;100.00
57050;BME280;42935;50.966;16.992;2023-06-19T03:08:16;101385.84;;;11.31;100.00
57050;BME280;42935;50.966;16.992;2023-06-19T03:11:29;101376.16;;;11.47;100.00
57050;BME280;42935;50.966;16.992;2023-06-19T03:14:46;101383.52;;;11.52;100.00
57050;BME280;42935;50.966;16.992;2023-06-19T03:18:03;101390.51;;;11.52;100.00
57050;BME280;42935;50.966;16.992;2023-06-19T03:21:25;101385.38;;;11.68;100.00
57050;BME280;42935;50.966;16.992;2023-06-19T03:24:43;101384.51;;;11.64;100.00
57050;BME280;42935;50.966;16.992;2023-06-19T03:28:01;101377.93;;;11.72;100.00
57050;BME280;42935;50.966;16.992;2023-06-19T03:31:47;101379.82;;;11.74;100.00
57050;BME280;42935;50.966;16.992;2023-06-19T03:35:02;101378.68;;;11.91;100.00
57050;BME280;42935;50.966;16.992;2023-06-19T03:38:21;101372.23;;;11.84;100.00
57050;BME280;42935;50.966;16.992;2023-06-19T03:41:38;101373.41;;;11.86;100.00
57050;BME280;42935;50.966;16.992;2023-06-19T03:44:49;101373.41;;;11.94;100.00
57050;BME280;42935;50.966;16.992;2023-06-19T03:48:08;101375.03;;;12.09;100.00
57050;BME280;42935;50.966;16.992;2023-06-19T03:51:23;101369.68;;;12.21;100.00
57050;BME280;42935;50.966;16.992;2023-06-19T03:54:40;101360.28;;;12.28;100.00
57050;BME280;42935;50.966;16.992;2023-06-19T03:57:59;101366.80;;;12.51;100.00
57050;BME280;42935;50.966;16.992;2023-06-19T04:01:21;101363.38;;;12.63;100.00
57050;BME280;42935;50.966;16.992;2023-06-19T04:04:41;101366.50;;;12.86;100.00
57050;BME280;42935;50.966;16.992;2023-06-19T04:08:03;101378.60;;;12.99;100.00
57050;BME280;42935;50.966;16.992;2023-06-19T04:11:20;101381.81;;;13.23;100.00
57050;BME280;42935;50.966;16.992;2023-06-19T04:14:37;101375.51;;;13.48;100.00
57050;BME280;42935;50.966;16.992;2023-06-19T04:18:28;101375.13;;;13.77;100.00
57050;BME280;42935;50.966;16.992;2023-06-19T04:21:44;101368.78;;;13.76;100.00
57050;BME280;42935;50.966;16.992;2023-06-19T04:25:10;101364.74;;;13.87;100.00
57050;BME280;42935;50.966;16.992;2023-06-19T04:28:26;101375.98;;;13.95;100.00
57050;BME280;42935;50.966;16.992;2023-06-19T04:31:48;101379.84;;;14.15;100.00
57050;BME280;42935;50.966;16.992;2023-06-19T04:35:05;101376.46;;;14.27;100.00
57050;BME280;42935;50.966;16.992;2023-06-19T04:38:22;101341.17;;;14.24;100.00
57050;BME280;42935;50.966;16.992;2023-06-19T04:41:39;101365.86;;;14.42;100.00
57050;BME280;42935;50.966;16.992;2023-06-19T04:44:59;101369.24;;;14.57;100.00
57050;BME280;42935;50.966;16.992;2023-06-19T04:48:13;101379.18;;;14.73;100.00
57050;BME280;42935;50.966;16.992;2023-06-19T04:51:34;101389.95;;;14.53;100.00
57050;BME280;42935;50.966;16.992;2023-06-19T04:54:51;101387.64;;;14.51;100.00
57050;BME280;42935;50.966;16.992;2023-06-19T04:58:37;101395.56;;;14.88;100.00
57050;BME280;42935;50.966;16.992;2023-06-19T05:02:05;101396.73;;;15.21;100.00
57050;BME280;42935;50.966;16.992;2023-06-19T05:05:21;101395.52;;;15.14;100.00
57050;BME280;42935;50.966;16.992;2023-06-19T05:08:38;101400.89;;;15.33;100.00
57050;BME280;42935;50.966;16.992;2023-06-19T05:11:59;101401.03;;;15.51;100.00
57050;BME280;42935;50.966;16.992;2023-06-19T05:15:48;101386.34;;;15.51;100.00
57050;BME280;42935;50.966;16.992;2023-06-19T05:19:06;101392.62;;;15.79;100.00
57050;BME280;42935;50.966;16.992;2023-06-19T05:22:20;101380.53;;;15.94;100.00
57050;BME280;42935;50.966;16.992;2023-06-19T05:25:42;101402.41;;;16.41;100.00
57050;BME280;42935;50.966;16.992;2023-06-19T05:28:56;101390.65;;;16.57;100.00
57050;BME280;42935;50.966;16.992;2023-06-19T05:32:43;101393.43;;;16.62;100.00
57050;BME280;42935;50.966;16.992;2023-06-19T05:35:56;101414.25;;;16.33;100.00
57050;BME280;42935;50.966;16.992;2023-06-19T05:39:17;101419.15;;;16.79;100.00
57050;BME280;42935;50.966;16.992;2023-06-19T05:42:35;101424.05;;;17.06;100.00
57050;BME280;42935;50.966;16.992;2023-06-19T05:46:27;101419.21;;;17.30;100.00
57050;BME280;42935;50.966;16.992;2023-06-19T05:49:48;101412.80;;;17.45;100.00
57050;BME280;42935;50.966;16.992;2023-06-19T05:53:05;101422.52;;;17.57;100.00
57050;BME280;42935;50.966;16.992;2023-06-19T05:56:22;101422.80;;;17.90;100.00
57050;BME280;42935;50.966;16.992;2023-06-19T05:59:40;101417.49;;;18.16;100.00
57050;BME280;42935;50.966;16.992;2023-06-19T06:02:58;101430.73;;;18.39;100.00
57050;BME280;42935;50.966;16.992;2023-06-19T06:06:19;101428.04;;;18.42;100.00
57050;BME280;42935;50.966;16.992;2023-06-19T06:09:39;101429.04;;;18.72;100.00
57050;BME280;42935;50.966;16.992;2023-06-19T06:13:05;101437.80;;;18.73;100.00
57050;BME280;42935;50.966;16.992;2023-06-19T06:16:22;101439.02;;;18.57;100.00
57050;BME280;42935;50.966;16.992;2023-06-19T06:19:43;101442.54;;;18.93;100.00
57050;BME280;42935;50.966;16.992;2023-06-19T06:23:00;101447.83;;;19.33;100.00
57050;BME280;42935;50.966;16.992;2023-06-19T06:26:17;101452.68;;;19.26;100.00
57050;BME280;42935;50.966;16.992;2023-06-19T06:29:35;101453.05;;;19.19;100.00
57050;BME280;42935;50.966;16.992;2023-06-19T06:32:49;101459.01;;;19.61;100.00
57050;BME280;42935;50.966;16.992;2023-06-19T06:36:07;101444.87;;;19.43;100.00
57050;BME280;42935;50.966;16.992;2023-06-19T06:39:52;101455.68;;;19.57;100.00
57050;BME280;42935;50.966;16.992;2023-06-19T06:43:07;101463.20;;;19.35;100.00
57050;BME280;42935;50.966;16.992;2023-06-19T06:46:22;101456.86;;;19.85;100.00
57050;BME280;42935;50.966;16.992;2023-06-19T06:49:39;101454.98;;;20.23;100.00
57050;BME280;42935;50.966;16.992;2023-06-19T06:53:00;101459.91;;;19.91;100.00
57050;BME280;42935;50.966;16.992;2023-06-19T06:56:31;101470.45;;;20.19;100.00
57050;BME280;42935;50.966;16.992;2023-06-19T06:59:48;101474.18;;;20.20;100.00
57050;BME280;42935;50.966;16.992;2023-06-19T07:03:05;101478.82;;;20.43;100.00
57050;BME280;42935;50.966;16.992;2023-06-19T07:06:21;101474.09;;;20.64;100.00
57050;BME280;42935;50.966;16.992;2023-06-19T07:09:38;101463.63;;;20.40;100.00
57050;BME280;42935;50.966;16.992;2023-06-19T07:12:53;101471.41;;;20.31;100.00
57050;BME280;42935;50.966;16.992;2023-06-19T07:16:06;101466.02;;;21.00;96.14
57050;BME280;42935;50.966;16.992;2023-06-19T07:19:23;101455.05;;;21.03;99.57
57050;BME280;42935;50.966;16.992;2023-06-19T07:22:46;101452.01;;;21.43;98.63
57050;BME280;42935;50.966;16.992;2023-06-19T07:26:14;101410.54;;;21.10;100.00
57050;BME280;42935;50.966;16.992;2023-06-19T07:29:32;101440.96;;;21.74;99.13
57050;BME280;42935;50.966;16.992;2023-06-19T07:32:47;101456.16;;;21.43;99.84
57050;BME280;42935;50.966;16.992;2023-06-19T07:36:07;101456.74;;;21.69;96.83
57050;BME280;42935;50.966;16.992;2023-06-19T07:39:35;101461.48;;;21.53;100.00
57050;BME280;42935;50.966;16.992;2023-06-19T07:42:53;101461.40;;;21.42;99.74
57050;BME280;42935;50.966;16.992;2023-06-19T07:46:12;101469.55;;;21.87;94.03
57050;BME280;42935;50.966;16.992;2023-06-19T07:49:27;101471.32;;;22.00;91.60
57050;BME280;42935;50.966;16.992;2023-06-19T07:52:44;101473.90;;;22.28;93.84
57050;BME280;42935;50.966;16.992;2023-06-19T07:56:33;101468.95;;;21.78;91.21
57050;BME280;42935;50.966;16.992;2023-06-19T07:59:52;101467.46;;;22.38;93.14
57050;BME280;42935;50.966;16.992;2023-06-19T08:03:14;101463.46;;;22.57;87.69
57050;BME280;42935;50.966;16.992;2023-06-19T08:06:31;101462.80;;;23.01;88.76
57050;BME280;42935;50.966;16.992;2023-06-19T08:09:52;101462.83;;;22.73;85.75
57050;BME280;42935;50.966;16.992;2023-06-19T08:13:15;101460.39;;;23.20;88.11
57050;BME280;42935;50.966;16.992;2023-06-19T08:16:32;101459.78;;;23.57;84.86
57050;BME280;42935;50.966;16.992;2023-06-19T08:21:27;101451.34;;;23.67;77.75
57050;BME280;42935;50.966;16.992;2023-06-19T08:24:44;101451.27;;;23.72;83.48
57050;BME280;42935;50.966;16.992;2023-06-19T08:27:59;101452.79;;;23.94;85.28
57050;BME280;42935;50.966;16.992;2023-06-19T08:31:16;101432.81;;;24.47;81.08
57050;BME280;42935;50.966;16.992;2023-06-19T08:34:33;101436.59;;;23.94;82.22
57050;BME280;42935;50.966;16.992;2023-06-19T08:37:46;101439.71;;;24.07;81.51
57050;BME280;42935;50.966;16.992;2023-06-19T08:41:03;101437.28;;;23.81;80.30
57050;BME280;42935;50.966;16.992;2023-06-19T08:44:16;101447.20;;;23.72;78.25
57050;BME280;42935;50.966;16.992;2023-06-19T08:47:33;101432.11;;;24.67;80.69
57050;BME280;42935;50.966;16.992;2023-06-19T08:50:48;101432.02;;;24.58;69.90
57050;BME280;42935;50.966;16.992;2023-06-19T08:54:08;101433.81;;;24.69;73.51
57050;BME280;42935;50.966;16.992;2023-06-19T08:57:49;101429.35;;;25.03;76.33
57050;BME280;42935;50.966;16.992;2023-06-19T09:00:58;101426.55;;;24.58;73.86
57050;BME280;42935;50.966;16.992;2023-06-19T09:04:14;101430.09;;;25.04;66.11
57050;BME280;42935;50.966;16.992;2023-06-19T09:07:30;101420.66;;;25.28;69.50
57050;BME280;42935;50.966;16.992;2023-06-19T09:10:56;101416.45;;;25.37;72.18
57050;BME280;42935;50.966;16.992;2023-06-19T09:14:17;101420.37;;;25.26;71.35
57050;BME280;42935;50.966;16.992;2023-06-19T09:17:35;101408.16;;;25.55;71.02
57050;BME280;42935;50.966;16.992;2023-06-19T09:20:54;101416.23;;;25.16;68.43
57050;BME280;42935;50.966;16.992;2023-06-19T09:24:12;101413.94;;;25.81;70.32
57050;BME280;42935;50.966;16.992;2023-06-19T09:27:34;101405.40;;;26.52;70.10
57050;BME280;42935;50.966;16.992;2023-06-19T09:34:15;101409.32;;;26.36;62.68
57050;BME280;42935;50.966;16.992;2023-06-19T09:37:39;101409.05;;;25.52;58.84
57050;BME280;42935;50.966;16.992;2023-06-19T09:41:31;101406.63;;;26.20;63.28
57050;BME280;42935;50.966;16.992;2023-06-19T09:44:48;101402.34;;;26.80;60.49
57050;BME280;42935;50.966;16.992;2023-06-19T09:48:10;101402.15;;;26.92;60.65
57050;BME280;42935;50.966;16.992;2023-06-19T09:51:37;101401.27;;;26.95;57.98
57050;BME280;42935;50.966;16.992;2023-06-19T09:54:55;101392.22;;;26.17;58.40
57050;BME280;42935;50.966;16.992;2023-06-19T09:58:16;101389.87;;;26.51;61.88
57050;BME280;42935;50.966;16.992;2023-06-19T10:01:30;101392.73;;;27.02;59.27
57050;BME280;42935;50.966;16.992;2023-06-19T10:04:52;101394.23;;;27.22;59.28
57050;BME280;42935;50.966;16.992;2023-06-19T10:08:10;101397.16;;;25.87;59.88
57050;BME280;42935;50.966;16.992;2023-06-19T10:14:51;101387.38;;;27.49;57.31
57050;BME280;42935;50.966;16.992;2023-06-19T10:18:16;101388.88;;;27.94;58.22
57050;BME280;42935;50.966;16.992;2023-06-19T10:21:44;101381.13;;;28.04;56.00
57050;BME280;42935;50.966;16.992;2023-06-19T10:25:02;101376.71;;;28.21;54.94
57050;BME280;42935;50.966;16.992;2023-06-19T10:28:29;101380.91;;;28.44;51.23
57050;BME280;42935;50.966;16.992;2023-06-19T10:31:44;101377.37;;;28.81;57.18
57050;BME280;42935;50.966;16.992;2023-06-19T10:38:36;101371.15;;;27.86;57.41
57050;BME280;42935;50.966;16.992;2023-06-19T10:42:23;101365.84;;;28.40;55.64
57050;BME280;42935;50.966;16.992;2023-06-19T10:45:42;101375.27;;;27.89;57.17
57050;BME280;42935;50.966;16.992;2023-06-19T10:48:55;101367.44;;;28.67;51.69
57050;BME280;42935;50.966;16.992;2023-06-19T10:52:25;101369.13;;;29.02;50.85
57050;BME280;42935;50.966;16.992;2023-06-19T10:55:44;101363.73;;;28.43;53.99
57050;BME280;42935;50.966;16.992;2023-06-19T10:59:06;101353.48;;;28.39;54.17
57050;BME280;42935;50.966;16.992;2023-06-19T11:02:22;101357.46;;;28.57;53.93
57050;BME280;42935;50.966;16.992;2023-06-19T11:05:36;101348.84;;;28.94;53.61
57050;BME280;42935;50.966;16.992;2023-06-19T11:08:55;101357.15;;;28.58;56.84
57050;BME280;42935;50.966;16.992;2023-06-19T11:12:20;101351.83;;;28.49;54.29
57050;BME280;42935;50.966;16.992;2023-06-19T11:15:34;101350.96;;;28.94;55.25
57050;BME280;42935;50.966;16.992;2023-06-19T11:18:58;101321.26;;;28.82;55.00
57050;BME280;42935;50.966;16.992;2023-06-19T11:22:16;101348.43;;;28.45;54.23
57050;BME280;42935;50.966;16.992;2023-06-19T11:25:40;101351.38;;;28.67;53.06
57050;BME280;42935;50.966;16.992;2023-06-19T11:29:00;101343.16;;;29.41;55.31
57050;BME280;42935;50.966;16.992;2023-06-19T11:32:23;101349.88;;;29.69;51.19
57050;BME280;42935;50.966;16.992;2023-06-19T11:35:41;101343.79;;;29.61;50.80
57050;BME280;42935;50.966;16.992;2023-06-19T11:39:13;101350.01;;;28.37;49.02
57050;BME280;42935;50.966;16.992;2023-06-19T11:46:07;101336.92;;;28.21;52.34
57050;BME280;42935;50.966;16.992;2023-06-19T11:49:24;101341.55;;;28.35;51.11
57050;BME280;42935;50.966;16.992;2023-06-19T11:52:43;101336.41;;;28.47;50.89
57050;BME280;42935;50.966;16.992;2023-06-19T11:56:01;101340.67;;;28.65;50.06
57050;BME280;42935;50.966;16.992;2023-06-19T11:59:22;101338.45;;;28.33;51.41
57050;BME280;42935;50.966;16.992;2023-06-19T12:02:41;101330.67;;;29.00;48.51
57050;BME280;42935;50.966;16.992;2023-06-19T12:06:31;101307.60;;;29.40;47.84
57050;BME280;42935;50.966;16.992;2023-06-19T12:09:48;101324.63;;;28.84;47.27
57050;BME280;42935;50.966;16.992;2023-06-19T12:13:05;101331.61;;;29.13;50.18
57050;BME280;42935;50.966;16.992;2023-06-19T12:16:22;101322.45;;;28.94;47.26
57050;BME280;42935;50.966;16.992;2023-06-19T12:19:43;101317.59;;;29.31;49.19
57050;BME280;42935;50.966;16.992;2023-06-19T12:23:00;101321.55;;;29.05;50.99
57050;BME280;42935;50.966;16.992;2023-06-19T12:26:19;101314.13;;;29.67;50.75
57050;BME280;42935;50.966;16.992;2023-06-19T12:29:34;101315.59;;;30.05;47.12
57050;BME280;42935;50.966;16.992;2023-06-19T12:32:55;101313.00;;;29.39;49.63
57050;BME280;42935;50.966;16.992;2023-06-19T12:36:12;101310.12;;;29.18;49.63
57050;BME280;42935;50.966;16.992;2023-06-19T12:39:58;101318.62;;;29.27;50.10
57050;BME280;42935;50.966;16.992;2023-06-19T12:43:20;101314.89;;;29.33;52.11
57050;BME280;42935;50.966;16.992;2023-06-19T12:46:41;101314.80;;;29.24;51.10
57050;BME280;42935;50.966;16.992;2023-06-19T12:50:28;101309.36;;;29.33;50.36
57050;BME280;42935;50.966;16.992;2023-06-19T12:53:44;101310.92;;;29.69;50.66
57050;BME280;42935;50.966;16.992;2023-06-19T12:56:57;101304.98;;;29.89;49.30
57050;BME280;42935;50.966;16.992;2023-06-19T13:00:11;101300.07;;;29.94;50.05
57050;BME280;42935;50.966;16.992;2023-06-19T13:03:30;101299.23;;;29.46;49.50
57050;BME280;42935;50.966;16.992;2023-06-19T13:06:51;101300.08;;;29.78;49.46
57050;BME280;42935;50.966;16.992;2023-06-19T13:10:08;101305.76;;;29.53;49.73
57050;BME280;42935;50.966;16.992;2023-06-19T13:13:26;101309.02;;;29.64;47.76
57050;BME280;42935;50.966;16.992;2023-06-19T13:16:46;101305.38;;;30.17;47.78
57050;BME280;42935;50.966;16.992;2023-06-19T13:20:03;101303.22;;;29.70;50.13
57050;BME280;42935;50.966;16.992;2023-06-19T13:23:24;101303.46;;;29.47;49.92
57050;BME280;42935;50.966;16.992;2023-06-19T13:26:43;101296.14;;;29.33;50.42
57050;BME280;42935;50.966;16.992;2023-06-19T13:30:02;101299.04;;;28.81;51.38
57050;BME280;42935;50.966;16.992;2023-06-19T13:33:19;101294.70;;;28.63;53.78
57050;BME280;42935;50.966;16.992;2023-06-19T13:36:32;101296.48;;;29.24;51.94
57050;BME280;42935;50.966;16.992;2023-06-19T13:39:50;101279.62;;;28.99;50.48
57050;BME280;42935;50.966;16.992;2023-06-19T13:43:11;101293.80;;;29.84;53.81
57050;BME280;42935;50.966;16.992;2023-06-19T13:46:29;101297.66;;;29.45;51.07
57050;BME280;42935;50.966;16.992;2023-06-19T13:49:47;101289.57;;;29.77;49.82
57050;BME280;42935;50.966;16.992;2023-06-19T13:53:04;101286.74;;;30.80;50.32
57050;BME280;42935;50.966;16.992;2023-06-19T13:56:51;101285.07;;;30.74;49.03
57050;BME280;42935;50.966;16.992;2023-06-19T14:00:13;101276.48;;;30.02;50.82
57050;BME280;42935;50.966;16.992;2023-06-19T14:03:31;101286.09;;;29.89;51.28
57050;BME280;42935;50.966;16.992;2023-06-19T14:06:53;101272.31;;;30.35;51.75
57050;BME280;42935;50.966;16.992;2023-06-19T14:10:11;101276.38;;;31.74;48.03
57050;BME280;42935;50.966;16.992;2023-06-19T14:13:36;101277.95;;;32.18;49.28
57050;BME280;42935;50.966;16.992;2023-06-19T14:16:49;101284.85;;;31.58;46.44
57050;BME280;42935;50.966;16.992;2023-06-19T14:20:11;101281.06;;;32.29;48.29
57050;BME280;42935;50.966;16.992;2023-06-19T14:23:29;101283.51;;;32.16;45.96
57050;BME280;42935;50.966;16.992;2023-06-19T14:26:49;101276.61;;;32.40;44.65
57050;BME280;42935;50.966;16.992;2023-06-19T14:30:07;101276.34;;;32.73;45.92
57050;BME280;42935;50.966;16.992;2023-06-19T14:33:25;101239.34;;;33.43;43.85
57050;BME280;42935;50.966;16.992;2023-06-19T14:37:08;101263.67;;;34.51;42.94
57050;BME280;42935;50.966;16.992;2023-06-19T14:40:25;101267.51;;;33.35;44.58
57050;BME280;42935;50.966;16.992;2023-06-19T14:43:38;101266.13;;;33.76;43.80
57050;BME280;42935;50.966;16.992;2023-06-19T14:46:59;101259.41;;;34.59;42.93
57050;BME280;42935;50.966;16.992;2023-06-19T14:50:21;101265.78;;;33.66;43.73
57050;BME280;42935;50.966;16.992;2023-06-19T14:53:38;101268.07;;;33.85;40.99
57050;BME280;42935;50.966;16.992;2023-06-19T14:56:52;101274.09;;;33.91;43.01
57050;BME280;42935;50.966;16.992;2023-06-19T15:00:10;101271.51;;;33.22;41.79
57050;BME280;42935;50.966;16.992;2023-06-19T15:03:32;101268.86;;;33.82;42.37
57050;BME280;42935;50.966;16.992;2023-06-19T15:06:49;101273.09;;;32.57;43.82
57050;BME280;42935;50.966;16.992;2023-06-19T15:10:12;101271.45;;;31.93;43.85
57050;BME280;42935;50.966;16.992;2023-06-19T15:13:33;101274.80;;;30.52;46.01
57050;BME280;42935;50.966;16.992;2023-06-19T15:16:50;101275.71;;;30.47;47.62
57050;BME280;42935;50.966;16.992;2023-06-19T15:20:15;101266.66;;;30.66;48.40
57050;BME280;42935;50.966;16.992;2023-06-19T15:23:40;101267.57;;;30.94;48.54
57050;BME280;42935;50.966;16.992;2023-06-19T15:26:59;101271.06;;;30.72;48.17
57050;BME280;42935;50.966;16.992;2023-06-19T15:30:17;101266.52;;;31.33;46.76
57050;BME280;42935;50.966;16.992;2023-06-19T15:33:30;101269.50;;;31.55;47.28
57050;BME280;42935;50.966;16.992;2023-06-19T15:36:47;101256.91;;;31.11;49.10
57050;BME280;42935;50.966;16.992;2023-06-19T15:40:08;101227.53;;;30.35;48.69
57050;BME280;42935;50.966;16.992;2023-06-19T15:43:26;101262.59;;;30.31;48.97
57050;BME280;42935;50.966;16.992;2023-06-19T15:46:46;101270.04;;;30.14;50.92
57050;BME280;42935;50.966;16.992;2023-06-19T15:50:08;101261.94;;;29.93;50.50
57050;BME280;42935;50.966;16.992;2023-06-19T15:53:26;101264.30;;;29.66;51.33
57050;BME280;42935;50.966;16.992;2023-06-19T15:56:51;101266.46;;;29.80;52.37
57050;BME280;42935;50.966;16.992;2023-06-19T16:00:15;101222.10;;;29.31;53.00
57050;BME280;42935;50.966;16.992;2023-06-19T16:03:35;101262.34;;;29.81;52.58
57050;BME280;42935;50.966;16.992;2023-06-19T16:06:52;101245.52;;;29.58;52.71
57050;BME280;42935;50.966;16.992;2023-06-19T16:10:09;101266.31;;;28.88;53.42
57050;BME280;42935;50.966;16.992;2023-06-19T16:13:26;101267.28;;;28.77;54.19
57050;BME280;42935;50.966;16.992;2023-06-19T16:16:43;101256.50;;;28.80;53.44
57050;BME280;42935;50.966;16.992;2023-06-19T16:20:05;101257.99;;;28.69;54.69
57050;BME280;42935;50.966;16.992;2023-06-19T16:23:22;101251.81;;;28.67;55.78
57050;BME280;42935;50.966;16.992;2023-06-19T16:26:40;101228.13;;;28.82;55.83
57050;BME280;42935;50.966;16.992;2023-06-19T16:29:56;101246.80;;;29.23;54.84
57050;BME280;42935;50.966;16.992;2023-06-19T16:33:11;101257.70;;;28.88;55.66
57050;BME280;42935;50.966;16.992;2023-06-19T16:36:26;101252.46;;;28.92;56.23
57050;BME280;42935;50.966;16.992;2023-06-19T16:39:47;101214.48;;;28.76;57.09
57050;BME280;42935;50.966;16.992;2023-06-19T16:43:04;101249.41;;;28.76;56.28
57050;BME280;42935;50.966;16.992;2023-06-19T16:46:21;101242.59;;;28.71;56.29
57050;BME280;42935;50.966;16.992;2023-06-19T16:49:38;101243.38;;;28.45;57.19
57050;BME280;42935;50.966;16.992;2023-06-19T16:52:51;101242.87;;;28.44;58.95
57050;BME280;42935;50.966;16.992;2023-06-19T16:56:08;101239.42;;;28.67;59.96
57050;BME280;42935;50.966;16.992;2023-06-19T16:59:23;101233.16;;;29.38;59.92
57050;BME280;42935;50.966;16.992;2023-06-19T17:03:09;101238.18;;;29.73;56.93
57050;BME280;42935;50.966;16.992;2023-06-19T17:06:27;101241.90;;;30.04;57.19
57050;BME280;42935;50.966;16.992;2023-06-19T17:09:40;101203.10;;;29.76;54.68
57050;BME280;42935;50.966;16.992;2023-06-19T17:13:01;101241.28;;;29.67;55.48
57050;BME280;42935;50.966;16.992;2023-06-19T17:16:23;101232.72;;;30.06;55.12
57050;BME280;42935;50.966;16.992;2023-06-19T17:19:40;101232.26;;;30.13;55.41
57050;BME280;42935;50.966;16.992;2023-06-19T17:22:55;101235.24;;;30.41;55.91
57050;BME280;42935;50.966;16.992;2023-06-19T17:26:15;101229.11;;;30.31;56.77